Terminal Aerodrome Forecast
Issued by NWS Shreveport, LA

Home | Current Version | Previous Version | Text Only | Print | Product List | Glossary On
Versions: 1 2 3 4 5 6 7 8 9 10 11 12 13 14
000
FTUS44 KSHV 030539
TAFELD
TAF
KELD 030539Z 0306/0406 VRB06KT P6SM SCT250
     FM031400 VRB06KT P6SM VCTS SCT040CB OVC140
     FM031800 21011G17KT P6SM VCTS OVC050CB
     FM032000 22008KT P6SM OVC050
     FM040000 18004KT P6SM VCSH OVC050=

USA.gov is the U.S. government's official web portal to all federal, state and local government web resources and services.